Balt Flot 15 — UBPZ — position and weather

sailwx.info

Track history (hours):
 
Tides and Currents Weather Stations Pressure Air Temp Water Temp Dewpoint Dewpoint Depression Visibility Wind Speed Wind Dir Waves Ship Positions

Balt Flot 15

Last reported at 2017-Nov-16 18:13 UTC. Time now 2017-Nov-18 04:42 UTC.
Position N 54°47' E 019°38'.

Length 141 m; draft 3.4 m.

Type: Ship (hazmat cat C). MMSI: 273393370.

Date/timePositionNaut miles runAvg speedWind from/ knotsBaromVisibWave heightAir tempDewpointWater temp
2017-Nov-16 18:13N 54°47' E 019°38'2 8.1
2017-Nov-16 18:00N 54°45' E 019°38'8 0.2
2017-Nov-15 03:17N 54°39' E 019°48'0 0.0
2017-Nov-15 01:41N 54°39' E 019°48'0 0.0
2017-Nov-15 01:26N 54°39' E 019°48'0 0.0
2017-Nov-15 00:54N 54°39' E 019°48'0 0.0
2017-Nov-15 00:27N 54°39' E 019°48'0 0.0
2017-Nov-14 23:57N 54°39' E 019°48'313 6.6
2017-Nov-13 00:29N 59°35' E 023°01'4 7.5
2017-Nov-12 23:58N 59°36' E 023°08'3 7.3
2017-Nov-12 23:30N 59°37' E 023°15'4 7.3
2017-Nov-12 23:00N 59°38' E 023°22'4 7.3
2017-Nov-12 22:30N 59°39' E 023°29'4 7.4
2017-Nov-12 21:59N 59°40' E 023°36'4 7.3
2017-Nov-12 21:30N 59°41' E 023°43'4 7.1
2017-Nov-12 21:00N 59°42' E 023°50'3 6.9
2017-Nov-12 20:30N 59°43' E 023°56'4 7.0
2017-Nov-12 19:52N 59°44' E 024°04'3 7.1
2017-Nov-12 19:27N 59°45' E 024°10'4 7.3
2017-Nov-12 18:53N 59°46' E 024°18'2 6.3
2017-Nov-12 18:30N 59°47' E 024°23'3 6.8
2017-Nov-12 18:00N 59°47' E 024°29'4 7.3
2017-Nov-12 17:30N 59°48' E 024°36'4 7.5
2017-Nov-12 17:00N 59°49' E 024°43'4 7.9
2017-Nov-12 16:30N 59°50' E 024°51'5 8.3
2017-Nov-12 15:54N 59°51' E 025°01'3 8.6
2017-Nov-12 15:30N 59°52' E 025°07'4 8.6
2017-Nov-12 15:00N 59°53' E 025°16'5 8.3
2017-Nov-12 14:27N 59°53' E 025°25'24 8.0
2017-Nov-12 11:26N 59°59' E 026°12'3 7.7
2017-Nov-12 11:00N 59°59' E 026°18'4 7.3
2017-Nov-12 10:30N 60°01' E 026°25'4 7.2
2017-Nov-12 10:00N 60°02' E 026°32'4 7.1
2017-Nov-12 09:30N 60°02' E 026°39'4 7.5
2017-Nov-12 09:00N 60°01' E 026°47'5 9.0
2017-Nov-12 08:30N 60°00' E 026°56'3 6.3
2017-Nov-12 08:00N 59°60' E 027°02'3 6.1
2017-Nov-12 07:30N 60°01' E 027°07'3 5.5
2017-Nov-12 07:00N 60°02' E 027°12'3 5.3
2017-Nov-12 06:30N 60°04' E 027°17'3 5.0
2017-Nov-12 06:00N 60°05' E 027°21'3 5.2
2017-Nov-12 05:30N 60°07' E 027°25'3 5.1
2017-Nov-12 05:00N 60°08' E 027°30'3 5.3
2017-Nov-12 04:30N 60°09' E 027°34'3 6.0
2017-Nov-12 04:00N 60°11' E 027°39'3 6.9
2017-Nov-12 03:30N 60°12' E 027°45'4 8.2
2017-Nov-12 03:00N 60°12' E 027°54'4 8.3
2017-Nov-12 02:30N 60°10' E 028°02'4 8.3
2017-Nov-12 02:00N 60°09' E 028°10'4 8.4
2017-Nov-12 01:30N 60°08' E 028°18'4 8.8
2017-Nov-12 01:00N 60°05' E 028°24'4 8.7
2017-Nov-12 00:30N 60°03' E 028°32'4 8.3
2017-Nov-12 00:00N 60°03' E 028°41'4 8.6
2017-Nov-11 23:30N 60°03' E 028°49'4 8.7
2017-Nov-11 23:00N 60°03' E 028°58'19 8.7
2017-Nov-11 20:47N 60°00' E 029°36'3 9.5
2017-Nov-11 20:29N 59°60' E 029°41'5 9.7
2017-Nov-11 20:00N 59°57' E 029°50'4 9.0
2017-Nov-11 19:30N 59°56' E 029°58'4 8.8
2017-Nov-11 19:00N 59°54' E 030°06'3 6.3
2017-Nov-11 18:30N 59°53' E 030°12'0 0.8
2017-Nov-11 18:00N 59°53' E 030°13'0 0.0
2017-Nov-11 17:28N 59°53' E 030°13'0 0.0
2017-Nov-11 16:56N 59°53' E 030°13'0 0.0
2017-Nov-11 16:18N 59°53' E 030°13'0 0.0
2017-Nov-11 15:59N 59°53' E 030°13'0 0.0
2017-Nov-11 15:30N 59°53' E 030°13'0 0.0
2017-Nov-11 14:59N 59°53' E 030°13'0 0.0
2017-Nov-11 14:24N 59°53' E 030°13'0 0.0
2017-Nov-11 13:51N 59°53' E 030°13'0 0.0
2017-Nov-11 13:30N 59°53' E 030°13'0 0.0
2017-Nov-11 12:59N 59°53' E 030°13'0 0.0
2017-Nov-11 12:23N 59°53' E 030°13'0 0.0
2017-Nov-11 12:00N 59°53' E 030°13'0 0.0
2017-Nov-11 11:29N 59°53' E 030°13'0 0.0
2017-Nov-11 10:59N 59°53' E 030°13'0 0.0
2017-Nov-11 10:29N 59°53' E 030°13'0 0.0
2017-Nov-11 09:59N 59°53' E 030°13'0 0.0
2017-Nov-11 09:30N 59°53' E 030°13'0 0.0
2017-Nov-11 08:59N 59°53' E 030°13'0 0.0
2017-Nov-11 08:28N 59°53' E 030°13'0 0.0
2017-Nov-11 07:54N 59°53' E 030°13'0 0.0
2017-Nov-11 07:28N 59°53' E 030°13'0 0.0
2017-Nov-11 06:58N 59°53' E 030°13'0 0.0
2017-Nov-11 06:29N 59°53' E 030°13'0 0.0
2017-Nov-11 06:01N 59°53' E 030°13'0 0.0
2017-Nov-11 05:30N 59°53' E 030°13'0 0.3
2017-Nov-11 05:00N 59°53' E 030°12'3 5.4
2017-Nov-11 04:31N 59°54' E 030°07'4 8.5
2017-Nov-11 04:00N 59°55' E 029°59'4 8.8
2017-Nov-11 03:31N 59°57' E 029°51'19 1.3
2017-Nov-10 12:50N 60°01' E 029°15'3 8.6
2017-Nov-10 12:29N 60°02' E 029°09'5 8.8
2017-Nov-10 11:58N 60°02' E 028°60'4 8.7
2017-Nov-10 11:30N 60°02' E 028°52'4 8.8
2017-Nov-10 11:01N 60°02' E 028°43'4 8.9
2017-Nov-10 10:31N 60°03' E 028°34'4 8.8
2017-Nov-10 10:01N 60°03' E 028°26'4 7.9
2017-Nov-10 09:31N 60°05' E 028°19'4 7.9
2017-Nov-10 09:01N 60°07' E 028°12'4 8.2
2017-Nov-10 08:31N 60°08' E 028°04'4 8.0
2017-Nov-10 08:01N 60°09' E 027°57'4 7.6
2017-Nov-10 07:31N 60°10' E 027°49'4 7.8
2017-Nov-10 07:01N 60°09' E 027°41'4 8.1
2017-Nov-10 06:30N 60°08' E 027°34'4 8.3
2017-Nov-10 06:00N 60°06' E 027°27'4 8.6
2017-Nov-10 05:30N 60°03' E 027°20'4 8.4
2017-Nov-10 05:00N 60°01' E 027°12'4 8.6
2017-Nov-10 04:30N 59°59' E 027°05'4 7.7
2017-Nov-10 04:00N 59°58' E 026°57'4 7.6
2017-Nov-10 03:30N 59°59' E 026°50'4 7.8
2017-Nov-10 03:00N 59°59' E 026°42'4 8.2
2017-Nov-10 02:30N 59°59' E 026°34'4 8.4
2017-Nov-10 02:00N 59°57' E 026°26'4 8.5
2017-Nov-10 01:30N 59°56' E 026°18'31 8.7
2017-Nov-09 22:01N 59°49' E 025°19'0 9.8
2017-Nov-09 22:00N 59°49' E 025°19'5 9.9
2017-Nov-09 21:30N 59°48' E 025°09'510.3
2017-Nov-09 21:00N 59°47' E 024°59'4 9.0
2017-Nov-09 20:30N 59°47' E 024°50'4 8.1
2017-Nov-09 20:00N 59°46' E 024°43'4 8.6
2017-Nov-09 19:30N 59°45' E 024°34'4 8.6
2017-Nov-09 19:01N 59°44' E 024°26'4 8.7
2017-Nov-09 18:30N 59°42' E 024°18'4 7.4
2017-Nov-09 17:59N 59°39' E 024°13'5 8.6
2017-Nov-09 17:27N 59°35' E 024°10'4 9.2
2017-Nov-09 17:00N 59°31' E 024°06'1 0.0
2017-Nov-08 12:52N 59°32' E 024°06'3 8.3
2017-Nov-08 12:27N 59°35' E 024°09'6 8.6
2017-Nov-08 11:42N 59°41' E 024°13'5 9.2
2017-Nov-08 11:09N 59°46' E 024°18'1 8.3
2017-Nov-08 11:00N 59°46' E 024°20'4 8.4
2017-Nov-08 10:31N 59°48' E 024°28'4 8.6
2017-Nov-08 10:00N 59°48' E 024°36'4 8.3
2017-Nov-08 09:31N 59°49' E 024°44'4 7.9
2017-Nov-08 09:00N 59°50' E 024°52'4 8.4
2017-Nov-08 08:30N 59°51' E 025°00'4 8.4
2017-Nov-08 08:00N 59°52' E 025°08'12 8.4
2017-Nov-08 06:34N 59°54' E 025°32'20 8.5
2017-Nov-08 04:10N 59°59' E 026°12'1 8.7
2017-Nov-08 04:01N 59°59' E 026°15'4 8.8
2017-Nov-08 03:31N 60°00' E 026°23'612.7
2017-Nov-08 03:00N 60°02' E 026°36'4 8.7
2017-Nov-08 02:30N 60°01' E 026°44'4 7.9
2017-Nov-08 02:00N 60°00' E 026°52'4 8.8
2017-Nov-08 01:30N 59°60' E 027°01'4 8.9
2017-Nov-08 01:00N 60°01' E 027°09'4 8.7
2017-Nov-08 00:31N 60°04' E 027°16'4 8.1
2017-Nov-08 00:00N 60°06' E 027°24'5 9.4
2017-Nov-07 23:30N 60°08' E 027°32'4 8.3
2017-Nov-07 23:00N 60°10' E 027°39'4 8.8
2017-Nov-07 22:31N 60°12' E 027°47'4 8.5
2017-Nov-07 22:00N 60°11' E 027°55'4 7.3
2017-Nov-07 21:31N 60°10' E 028°02'510.8
2017-Nov-07 21:00N 60°09' E 028°13'4 8.3
2017-Nov-07 20:30N 60°07' E 028°20'4 8.4
2017-Nov-07 20:00N 60°04' E 028°27'3 6.2
2017-Nov-07 19:30N 60°03' E 028°32'3 6.2
2017-Nov-07 19:00N 60°03' E 028°39'4 8.5
2017-Nov-07 18:30N 60°03' E 028°47'4 8.8
2017-Nov-07 18:00N 60°02' E 028°56'5 8.9
2017-Nov-07 17:25N 60°02' E 029°06'4 8.8
2017-Nov-07 16:59N 60°02' E 029°14'12 8.7
2017-Nov-07 15:34N 60°00' E 029°38'1 9.0
2017-Nov-07 15:30N 59°60' E 029°39'4 7.5
2017-Nov-07 15:00N 59°58' E 029°46'2 3.2
2017-Nov-07 14:30N 59°58' E 029°49'3 5.3
2017-Nov-07 14:00N 59°57' E 029°54'4 8.8
2017-Nov-07 13:30N 59°55' E 030°02'4 8.1
2017-Nov-07 13:00N 59°53' E 030°10'2 3.2
2017-Nov-07 12:30N 59°53' E 030°13'0 0.0
2017-Nov-07 12:00N 59°53' E 030°13'0 0.0
2017-Nov-07 11:24N 59°53' E 030°13'0 0.0
2017-Nov-07 10:59N 59°53' E 030°13'0 0.0
2017-Nov-07 10:28N 59°53' E 030°13'0 0.0
2017-Nov-07 10:00N 59°53' E 030°13'0 0.0
2017-Nov-07 09:29N 59°53' E 030°13'0 0.0
2017-Nov-07 08:58N 59°53' E 030°13'0 0.0
2017-Nov-07 08:24N 59°53' E 030°13'0 0.0
2017-Nov-07 07:58N 59°53' E 030°13'0 0.0
2017-Nov-07 07:29N 59°53' E 030°13'0 0.0
2017-Nov-07 07:00N 59°53' E 030°13'0 0.0
2017-Nov-07 06:29N 59°53' E 030°13'0 0.0
2017-Nov-07 05:55N 59°53' E 030°13'0 0.0
2017-Nov-07 05:29N 59°53' E 030°13'0 0.0
2017-Nov-07 04:57N 59°53' E 030°13'0 0.0
2017-Nov-07 04:30N 59°53' E 030°13'0 0.0
2017-Nov-07 03:58N 59°53' E 030°13'0 0.0
2017-Nov-07 03:30N 59°53' E 030°13'0 0.0
2017-Nov-07 03:01N 59°53' E 030°13'0 0.0
2017-Nov-07 02:27N 59°53' E 030°13'0 0.0
2017-Nov-07 01:55N 59°53' E 030°13'0 0.0
2017-Nov-07 01:29N 59°53' E 030°13'1 1.7
2017-Nov-07 01:00N 59°54' E 030°13'4 7.3
2017-Nov-07 00:30N 59°56' E 030°18'3 5.8
2017-Nov-07 00:01N 59°57' E 030°24'4 6.2
2017-Nov-06 23:24N 59°53' E 030°27'6 5.4
2017-Nov-06 22:19N 59°49' E 030°35'  
Track history (hours):
 
Tides and Currents Weather Stations Pressure Air Temp Water Temp Dewpoint Dewpoint Depression Visibility Wind Speed Wind Dir Waves Ship Positions

Balt Flot 15

Last reported at 2017-Nov-16 18:13 UTC. Time now 2017-Nov-18 04:42 UTC.
Position N 54°47' E 019°38'.

Length 141 m; draft 3.4 m.

Type: Ship (hazmat cat C). MMSI: 273393370.

Date/timePositionNaut miles runAvg speedWind from/ knotsBaromVisibWave heightAir tempDewpointWater temp
2017-Nov-16 18:13N 54°47' E 019°38'2 8.1
2017-Nov-16 18:00N 54°45' E 019°38'8 0.2
2017-Nov-15 03:17N 54°39' E 019°48'0 0.0
2017-Nov-15 01:41N 54°39' E 019°48'0 0.0
2017-Nov-15 01:26N 54°39' E 019°48'0 0.0
2017-Nov-15 00:54N 54°39' E 019°48'0 0.0
2017-Nov-15 00:27N 54°39' E 019°48'0 0.0
2017-Nov-14 23:57N 54°39' E 019°48'313 6.6
2017-Nov-13 00:29N 59°35' E 023°01'4 7.5
2017-Nov-12 23:58N 59°36' E 023°08'3 7.3
2017-Nov-12 23:30N 59°37' E 023°15'4 7.3
2017-Nov-12 23:00N 59°38' E 023°22'4 7.3
2017-Nov-12 22:30N 59°39' E 023°29'4 7.4
2017-Nov-12 21:59N 59°40' E 023°36'4 7.3
2017-Nov-12 21:30N 59°41' E 023°43'4 7.1
2017-Nov-12 21:00N 59°42' E 023°50'3 6.9
2017-Nov-12 20:30N 59°43' E 023°56'4 7.0
2017-Nov-12 19:52N 59°44' E 024°04'3 7.1
2017-Nov-12 19:27N 59°45' E 024°10'4 7.3
2017-Nov-12 18:53N 59°46' E 024°18'2 6.3
2017-Nov-12 18:30N 59°47' E 024°23'3 6.8
2017-Nov-12 18:00N 59°47' E 024°29'4 7.3
2017-Nov-12 17:30N 59°48' E 024°36'4 7.5
2017-Nov-12 17:00N 59°49' E 024°43'4 7.9
2017-Nov-12 16:30N 59°50' E 024°51'5 8.3
2017-Nov-12 15:54N 59°51' E 025°01'3 8.6
2017-Nov-12 15:30N 59°52' E 025°07'4 8.6
2017-Nov-12 15:00N 59°53' E 025°16'5 8.3
2017-Nov-12 14:27N 59°53' E 025°25'24 8.0
2017-Nov-12 11:26N 59°59' E 026°12'3 7.7
2017-Nov-12 11:00N 59°59' E 026°18'4 7.3
2017-Nov-12 10:30N 60°01' E 026°25'4 7.2
2017-Nov-12 10:00N 60°02' E 026°32'4 7.1
2017-Nov-12 09:30N 60°02' E 026°39'4 7.5
2017-Nov-12 09:00N 60°01' E 026°47'5 9.0
2017-Nov-12 08:30N 60°00' E 026°56'3 6.3
2017-Nov-12 08:00N 59°60' E 027°02'3 6.1
2017-Nov-12 07:30N 60°01' E 027°07'3 5.5
2017-Nov-12 07:00N 60°02' E 027°12'3 5.3
2017-Nov-12 06:30N 60°04' E 027°17'3 5.0
2017-Nov-12 06:00N 60°05' E 027°21'3 5.2
2017-Nov-12 05:30N 60°07' E 027°25'3 5.1
2017-Nov-12 05:00N 60°08' E 027°30'3 5.3
2017-Nov-12 04:30N 60°09' E 027°34'3 6.0
2017-Nov-12 04:00N 60°11' E 027°39'3 6.9
2017-Nov-12 03:30N 60°12' E 027°45'4 8.2
2017-Nov-12 03:00N 60°12' E 027°54'4 8.3
2017-Nov-12 02:30N 60°10' E 028°02'4 8.3
2017-Nov-12 02:00N 60°09' E 028°10'4 8.4
2017-Nov-12 01:30N 60°08' E 028°18'4 8.8
2017-Nov-12 01:00N 60°05' E 028°24'4 8.7
2017-Nov-12 00:30N 60°03' E 028°32'4 8.3
2017-Nov-12 00:00N 60°03' E 028°41'4 8.6
2017-Nov-11 23:30N 60°03' E 028°49'4 8.7
2017-Nov-11 23:00N 60°03' E 028°58'19 8.7
2017-Nov-11 20:47N 60°00' E 029°36'3 9.5
2017-Nov-11 20:29N 59°60' E 029°41'5 9.7
2017-Nov-11 20:00N 59°57' E 029°50'4 9.0
2017-Nov-11 19:30N 59°56' E 029°58'4 8.8
2017-Nov-11 19:00N 59°54' E 030°06'3 6.3
2017-Nov-11 18:30N 59°53' E 030°12'0 0.8
2017-Nov-11 18:00N 59°53' E 030°13'0 0.0
2017-Nov-11 17:28N 59°53' E 030°13'0 0.0
2017-Nov-11 16:56N 59°53' E 030°13'0 0.0
2017-Nov-11 16:18N 59°53' E 030°13'0 0.0
2017-Nov-11 15:59N 59°53' E 030°13'0 0.0
2017-Nov-11 15:30N 59°53' E 030°13'0 0.0
2017-Nov-11 14:59N 59°53' E 030°13'0 0.0
2017-Nov-11 14:24N 59°53' E 030°13'0 0.0
2017-Nov-11 13:51N 59°53' E 030°13'0 0.0
2017-Nov-11 13:30N 59°53' E 030°13'0 0.0
2017-Nov-11 12:59N 59°53' E 030°13'0 0.0
2017-Nov-11 12:23N 59°53' E 030°13'0 0.0
2017-Nov-11 12:00N 59°53' E 030°13'0 0.0
2017-Nov-11 11:29N 59°53' E 030°13'0 0.0
2017-Nov-11 10:59N 59°53' E 030°13'0 0.0
2017-Nov-11 10:29N 59°53' E 030°13'0 0.0
2017-Nov-11 09:59N 59°53' E 030°13'0 0.0
2017-Nov-11 09:30N 59°53' E 030°13'0 0.0
2017-Nov-11 08:59N 59°53' E 030°13'0 0.0
2017-Nov-11 08:28N 59°53' E 030°13'0 0.0
2017-Nov-11 07:54N 59°53' E 030°13'0 0.0
2017-Nov-11 07:28N 59°53' E 030°13'0 0.0
2017-Nov-11 06:58N 59°53' E 030°13'0 0.0
2017-Nov-11 06:29N 59°53' E 030°13'0 0.0
2017-Nov-11 06:01N 59°53' E 030°13'0 0.0
2017-Nov-11 05:30N 59°53' E 030°13'0 0.3
2017-Nov-11 05:00N 59°53' E 030°12'3 5.4
2017-Nov-11 04:31N 59°54' E 030°07'4 8.5
2017-Nov-11 04:00N 59°55' E 029°59'4 8.8
2017-Nov-11 03:31N 59°57' E 029°51'19 1.3
2017-Nov-10 12:50N 60°01' E 029°15'3 8.6
2017-Nov-10 12:29N 60°02' E 029°09'5 8.8
2017-Nov-10 11:58N 60°02' E 028°60'4 8.7
2017-Nov-10 11:30N 60°02' E 028°52'4 8.8
2017-Nov-10 11:01N 60°02' E 028°43'4 8.9
2017-Nov-10 10:31N 60°03' E 028°34'4 8.8
2017-Nov-10 10:01N 60°03' E 028°26'4 7.9
2017-Nov-10 09:31N 60°05' E 028°19'4 7.9
2017-Nov-10 09:01N 60°07' E 028°12'4 8.2
2017-Nov-10 08:31N 60°08' E 028°04'4 8.0
2017-Nov-10 08:01N 60°09' E 027°57'4 7.6
2017-Nov-10 07:31N 60°10' E 027°49'4 7.8
2017-Nov-10 07:01N 60°09' E 027°41'4 8.1
2017-Nov-10 06:30N 60°08' E 027°34'4 8.3
2017-Nov-10 06:00N 60°06' E 027°27'4 8.6
2017-Nov-10 05:30N 60°03' E 027°20'4 8.4
2017-Nov-10 05:00N 60°01' E 027°12'4 8.6
2017-Nov-10 04:30N 59°59' E 027°05'4 7.7
2017-Nov-10 04:00N 59°58' E 026°57'4 7.6
2017-Nov-10 03:30N 59°59' E 026°50'4 7.8
2017-Nov-10 03:00N 59°59' E 026°42'4 8.2
2017-Nov-10 02:30N 59°59' E 026°34'4 8.4
2017-Nov-10 02:00N 59°57' E 026°26'4 8.5
2017-Nov-10 01:30N 59°56' E 026°18'31 8.7
2017-Nov-09 22:01N 59°49' E 025°19'0 9.8
2017-Nov-09 22:00N 59°49' E 025°19'5 9.9
2017-Nov-09 21:30N 59°48' E 025°09'510.3
2017-Nov-09 21:00N 59°47' E 024°59'4 9.0
2017-Nov-09 20:30N 59°47' E 024°50'4 8.1
2017-Nov-09 20:00N 59°46' E 024°43'4 8.6
2017-Nov-09 19:30N 59°45' E 024°34'4 8.6
2017-Nov-09 19:01N 59°44' E 024°26'4 8.7
2017-Nov-09 18:30N 59°42' E 024°18'4 7.4
2017-Nov-09 17:59N 59°39' E 024°13'5 8.6
2017-Nov-09 17:27N 59°35' E 024°10'4 9.2
2017-Nov-09 17:00N 59°31' E 024°06'1 0.0
2017-Nov-08 12:52N 59°32' E 024°06'3 8.3
2017-Nov-08 12:27N 59°35' E 024°09'6 8.6
2017-Nov-08 11:42N 59°41' E 024°13'5 9.2
2017-Nov-08 11:09N 59°46' E 024°18'1 8.3
2017-Nov-08 11:00N 59°46' E 024°20'4 8.4
2017-Nov-08 10:31N 59°48' E 024°28'4 8.6
2017-Nov-08 10:00N 59°48' E 024°36'4 8.3
2017-Nov-08 09:31N 59°49' E 024°44'4 7.9
2017-Nov-08 09:00N 59°50' E 024°52'4 8.4
2017-Nov-08 08:30N 59°51' E 025°00'4 8.4
2017-Nov-08 08:00N 59°52' E 025°08'12 8.4
2017-Nov-08 06:34N 59°54' E 025°32'20 8.5
2017-Nov-08 04:10N 59°59' E 026°12'1 8.7
2017-Nov-08 04:01N 59°59' E 026°15'4 8.8
2017-Nov-08 03:31N 60°00' E 026°23'612.7
2017-Nov-08 03:00N 60°02' E 026°36'4 8.7
2017-Nov-08 02:30N 60°01' E 026°44'4 7.9
2017-Nov-08 02:00N 60°00' E 026°52'4 8.8
2017-Nov-08 01:30N 59°60' E 027°01'4 8.9
2017-Nov-08 01:00N 60°01' E 027°09'4 8.7
2017-Nov-08 00:31N 60°04' E 027°16'4 8.1
2017-Nov-08 00:00N 60°06' E 027°24'5 9.4
2017-Nov-07 23:30N 60°08' E 027°32'4 8.3
2017-Nov-07 23:00N 60°10' E 027°39'4 8.8
2017-Nov-07 22:31N 60°12' E 027°47'4 8.5
2017-Nov-07 22:00N 60°11' E 027°55'4 7.3
2017-Nov-07 21:31N 60°10' E 028°02'510.8
2017-Nov-07 21:00N 60°09' E 028°13'4 8.3
2017-Nov-07 20:30N 60°07' E 028°20'4 8.4
2017-Nov-07 20:00N 60°04' E 028°27'3 6.2
2017-Nov-07 19:30N 60°03' E 028°32'3 6.2
2017-Nov-07 19:00N 60°03' E 028°39'4 8.5
2017-Nov-07 18:30N 60°03' E 028°47'4 8.8
2017-Nov-07 18:00N 60°02' E 028°56'5 8.9
2017-Nov-07 17:25N 60°02' E 029°06'4 8.8
2017-Nov-07 16:59N 60°02' E 029°14'12 8.7
2017-Nov-07 15:34N 60°00' E 029°38'1 9.0
2017-Nov-07 15:30N 59°60' E 029°39'4 7.5
2017-Nov-07 15:00N 59°58' E 029°46'2 3.2
2017-Nov-07 14:30N 59°58' E 029°49'3 5.3
2017-Nov-07 14:00N 59°57' E 029°54'4 8.8
2017-Nov-07 13:30N 59°55' E 030°02'4 8.1
2017-Nov-07 13:00N 59°53' E 030°10'2 3.2
2017-Nov-07 12:30N 59°53' E 030°13'0 0.0
2017-Nov-07 12:00N 59°53' E 030°13'0 0.0
2017-Nov-07 11:24N 59°53' E 030°13'0 0.0
2017-Nov-07 10:59N 59°53' E 030°13'0 0.0
2017-Nov-07 10:28N 59°53' E 030°13'0 0.0
2017-Nov-07 10:00N 59°53' E 030°13'0 0.0
2017-Nov-07 09:29N 59°53' E 030°13'0 0.0
2017-Nov-07 08:58N 59°53' E 030°13'0 0.0
2017-Nov-07 08:24N 59°53' E 030°13'0 0.0
2017-Nov-07 07:58N 59°53' E 030°13'0 0.0
2017-Nov-07 07:29N 59°53' E 030°13'0 0.0
2017-Nov-07 07:00N 59°53' E 030°13'0 0.0
2017-Nov-07 06:29N 59°53' E 030°13'0 0.0
2017-Nov-07 05:55N 59°53' E 030°13'0 0.0
2017-Nov-07 05:29N 59°53' E 030°13'0 0.0
2017-Nov-07 04:57N 59°53' E 030°13'0 0.0
2017-Nov-07 04:30N 59°53' E 030°13'0 0.0
2017-Nov-07 03:58N 59°53' E 030°13'0 0.0
2017-Nov-07 03:30N 59°53' E 030°13'0 0.0
2017-Nov-07 03:01N 59°53' E 030°13'0 0.0
2017-Nov-07 02:27N 59°53' E 030°13'0 0.0
2017-Nov-07 01:55N 59°53' E 030°13'0 0.0
2017-Nov-07 01:29N 59°53' E 030°13'1 1.7
2017-Nov-07 01:00N 59°54' E 030°13'4 7.3
2017-Nov-07 00:30N 59°56' E 030°18'3 5.8
2017-Nov-07 00:01N 59°57' E 030°24'4 6.2
2017-Nov-06 23:24N 59°53' E 030°27'6 5.4
2017-Nov-06 22:19N 59°49' E 030°35'  

Dump ship's entire track history